createdAt,value
2019-01-02T00:02:51.101Z,85.62
2019-01-02T00:05:21.555Z,85.73
2019-01-02T00:07:53.702Z,85.44
2019-01-02T00:10:45.726Z,85.92
2019-01-02T00:13:16.177Z,85.71
2019-01-02T00:15:47.054Z,85.51
2019-01-02T00:18:17.543Z,85.36
2019-01-02T00:20:48.323Z,85.86
2019-01-02T00:23:19.257Z,85.80
2019-01-02T00:25:49.727Z,86.09
2019-01-02T00:28:41.346Z,86.17
2019-01-02T00:31:33.326Z,86.60
2019-01-02T00:34:04.166Z,87.09
2019-01-02T00:36:34.608Z,87.38
2019-01-02T00:39:24.877Z,87.82
2019-01-02T00:41:55.346Z,88.33
2019-01-02T00:44:26.243Z,88.67
2019-01-02T00:46:56.689Z,89.42
2019-01-02T00:49:27.517Z,89.69
2019-01-02T00:51:58.358Z,90.01
2019-01-02T00:54:29.193Z,90.35
2019-01-02T00:57:00.039Z,89.98
2019-01-02T00:59:30.506Z,89.79
2019-01-02T01:02:00.959Z,89.58
2019-01-02T01:04:31.951Z,89.75
2019-01-02T01:07:02.780Z,89.58
2019-01-02T01:09:33.267Z,89.58
2019-01-02T01:12:03.712Z,89.75
2019-01-02T01:14:34.161Z,89.76
2019-01-02T01:17:04.644Z,89.66
2019-01-02T01:19:54.561Z,89.42
2019-01-02T01:22:46.201Z,89.32
2019-01-02T01:25:16.657Z,89.17
2019-01-02T01:27:47.456Z,88.66
2019-01-02T01:30:39.398Z,88.62
2019-01-02T01:33:31.021Z,88.75
2019-01-02T01:36:01.514Z,88.74
2019-01-02T01:38:51.428Z,88.70
2019-01-02T01:41:41.383Z,88.90
2019-01-02T01:47:20.690Z,88.83
2019-01-02T01:50:10.662Z,88.76
2019-01-02T01:53:00.618Z,88.86
2019-01-02T01:55:31.062Z,88.84
2019-01-02T01:58:22.720Z,88.66
2019-01-02T02:00:53.929Z,88.58
2019-01-02T02:03:24.421Z,88.78
2019-01-02T02:05:55.131Z,88.51
2019-01-02T02:08:47.112Z,88.58
2019-01-02T02:11:19.280Z,88.63
2019-01-02T02:14:09.304Z,88.69
2019-01-02T02:16:39.754Z,88.76
2019-01-02T02:19:10.373Z,88.63
2019-01-02T02:21:40.840Z,88.66
2019-01-02T02:24:51.322Z,88.23
2019-01-02T02:27:22.161Z,88.00
2019-01-02T02:29:52.609Z,88.01
2019-01-02T02:32:23.054Z,87.88
2019-01-02T02:34:53.681Z,88.21
2019-01-02T02:37:43.598Z,88.26
2019-01-02T02:40:14.909Z,88.37
2019-01-02T02:42:45.358Z,88.49
2019-01-02T02:45:37.010Z,88.41
2019-01-02T02:48:28.622Z,88.28
2019-01-02T02:51:20.258Z,88.11
2019-01-02T02:54:12.266Z,87.89
2019-01-02T02:57:03.926Z,88.00
2019-01-02T02:59:34.405Z,88.04
2019-01-02T03:02:26.372Z,87.96
2019-01-02T03:04:56.822Z,88.20
2019-01-02T03:07:48.483Z,88.04
2019-01-02T03:10:40.089Z,87.68
2019-01-02T03:13:50.893Z,87.81
2019-01-02T03:16:42.506Z,88.01
2019-01-02T03:19:34.158Z,87.85
2019-01-02T03:22:26.129Z,87.78
2019-01-02T03:25:17.784Z,87.85
2019-01-02T03:28:09.385Z,87.78
2019-01-02T03:31:01.031Z,87.66
2019-01-02T03:33:52.947Z,87.48
2019-01-02T03:36:23.420Z,87.33
2019-01-02T03:38:54.249Z,87.51
2019-01-02T03:41:24.694Z,87.51
2019-01-02T03:43:55.162Z,87.59
2019-01-02T03:46:25.601Z,87.41
2019-01-02T03:48:56.037Z,87.44
2019-01-02T03:51:26.504Z,87.18
2019-01-02T03:53:56.945Z,87.28
2019-01-02T03:56:46.772Z,87.21
2019-01-02T03:59:17.557Z,87.22
2019-01-02T04:01:48.381Z,87.33
2019-01-02T04:04:20.556Z,87.30
2019-01-02T04:06:51.353Z,87.03
2019-01-02T04:09:21.841Z,87.36
2019-01-02T04:11:52.621Z,87.18
2019-01-02T04:14:23.075Z,87.17
2019-01-02T04:16:53.544Z,87.04
2019-01-02T04:19:23.987Z,87.07
2019-01-02T04:21:54.836Z,86.95
2019-01-02T04:24:25.277Z,86.96
2019-01-02T04:26:55.713Z,86.66
2019-01-02T04:29:26.181Z,86.59
2019-01-02T04:31:56.976Z,86.71
2019-01-02T04:34:27.462Z,86.73
2019-01-02T04:36:57.904Z,86.58
2019-01-02T04:39:48.270Z,86.48
2019-01-02T04:42:18.873Z,86.47
2019-01-02T04:44:49.324Z,86.52
2019-01-02T04:47:19.796Z,86.46
2019-01-02T04:49:50.601Z,86.32
2019-01-02T04:52:21.076Z,86.39
2019-01-02T04:55:10.398Z,86.33
2019-01-02T04:57:41.572Z,86.26
2019-01-02T05:00:36.024Z,86.37
2019-01-02T05:03:06.508Z,86.28
2019-01-02T05:05:37.279Z,86.27
2019-01-02T05:08:07.888Z,86.14
2019-01-02T05:10:38.361Z,86.06
2019-01-02T05:13:09.147Z,86.01
2019-01-02T05:15:39.668Z,86.07
2019-01-02T05:18:10.111Z,86.20
2019-01-02T05:20:40.548Z,85.98
2019-01-02T05:23:11.009Z,86.29
2019-01-02T05:25:41.901Z,86.51
2019-01-02T05:28:12.721Z,86.49
2019-01-02T05:30:45.361Z,86.44
2019-01-02T05:33:16.264Z,86.50
2019-01-02T05:35:46.734Z,86.42
2019-01-02T05:38:17.174Z,86.64
2019-01-02T05:40:48.274Z,86.58
2019-01-02T05:43:18.715Z,86.49
2019-01-02T05:45:49.542Z,86.74
2019-01-02T05:48:39.313Z,86.48
2019-01-02T05:51:09.763Z,86.58
2019-01-02T05:53:40.266Z,86.48
2019-01-02T05:56:10.708Z,86.80
2019-01-02T05:59:00.666Z,87.11
2019-01-02T06:01:31.147Z,87.19
2019-01-02T06:04:03.301Z,87.08
2019-01-02T06:06:52.715Z,87.03
2019-01-02T06:09:23.161Z,86.92
2019-01-02T06:12:12.608Z,87.23
2019-01-02T06:14:43.059Z,87.21
2019-01-02T06:17:13.803Z,87.29
2019-01-02T06:19:44.274Z,87.24
2019-01-02T06:22:15.074Z,87.22
2019-01-02T06:24:45.947Z,87.25
2019-01-02T06:27:16.394Z,87.15
2019-01-02T06:29:46.837Z,87.14
2019-01-02T06:32:17.317Z,87.08
2019-01-02T06:35:26.605Z,86.99
2019-01-02T06:37:57.048Z,86.63
2019-01-02T06:40:27.491Z,86.63
2019-01-02T06:42:58.317Z,86.69
2019-01-02T06:45:28.762Z,86.43
2019-01-02T06:47:59.241Z,86.42
2019-01-02T06:50:29.683Z,86.16
2019-01-02T06:53:00.133Z,85.83
2019-01-02T06:55:30.896Z,85.83
2019-01-02T06:58:01.329Z,86.25
2019-01-02T07:00:34.619Z,85.94
2019-01-02T07:03:05.083Z,86.17
2019-01-02T07:05:35.664Z,86.39
2019-01-02T07:08:25.574Z,86.08
2019-01-02T07:10:56.362Z,86.06
2019-01-02T07:13:26.815Z,86.03
2019-01-02T07:15:57.262Z,85.77
2019-01-02T07:18:27.730Z,85.77
2019-01-02T07:21:17.649Z,85.54
2019-01-02T07:24:07.926Z,85.21
2019-01-02T07:26:38.378Z,85.28
2019-01-02T07:29:08.820Z,84.94
2019-01-02T07:31:39.688Z,84.54
2019-01-02T07:34:36.023Z,84.47
2019-01-02T07:37:44.484Z,84.38
2019-01-02T07:40:52.906Z,83.80
2019-01-02T07:44:01.413Z,83.42
2019-01-02T07:47:29.582Z,83.31
2019-01-02T07:50:28.260Z,83.55
2019-01-02T07:53:36.726Z,83.18
2019-01-02T07:56:45.230Z,82.87
2019-01-02T07:59:53.648Z,82.27
2019-01-02T08:03:02.159Z,82.28
2019-01-02T08:05:54.438Z,81.76
2019-01-02T08:09:04.589Z,81.76
2019-01-02T08:12:13.009Z,81.04
2019-01-02T08:15:21.529Z,80.20
2019-01-02T08:18:35.079Z,79.70
2019-01-02T08:21:43.559Z,80.06
2019-01-02T08:24:51.983Z,79.42
2019-01-02T08:28:06.021Z,79.50
2019-01-02T08:31:00.894Z,78.50
2019-01-02T08:34:09.355Z,78.16
2019-01-02T08:37:03.049Z,76.84
2019-01-02T08:40:11.518Z,76.58
2019-01-02T08:43:19.982Z,75.55
2019-01-02T08:46:24.490Z,73.18
2019-01-02T08:49:46.442Z,74.36
2019-01-02T08:52:54.918Z,74.66
2019-01-02T08:55:49.943Z,73.80
2019-01-02T08:58:47.418Z,74.75
2019-01-02T09:01:38.530Z,74.21
2019-01-02T09:04:41.605Z,73.24
2019-01-02T09:07:56.828Z,72.85
2019-01-02T09:10:49.150Z,72.65
2019-01-02T09:14:08.608Z,71.02
2019-01-02T09:17:19.947Z,71.56
2019-01-02T09:20:23.620Z,71.30
2019-01-02T09:23:28.178Z,71.80
2019-01-02T09:27:00.919Z,70.34
2019-01-02T09:30:10.862Z,69.11
2019-01-02T09:33:22.656Z,68.70
2019-01-02T09:36:49.394Z,67.58
2019-01-02T09:40:24.907Z,67.85
2019-01-02T09:43:24.366Z,66.83
2019-01-02T09:46:31.216Z,68.14
2019-01-02T09:49:18.525Z,66.07
2019-01-02T09:52:37.898Z,65.76
2019-01-02T09:55:47.721Z,66.37
2019-01-02T09:59:10.853Z,65.03
2019-01-02T10:02:20.263Z,66.41
2019-01-02T10:05:33.603Z,65.59
2019-01-02T10:08:46.771Z,64.98
2019-01-02T10:11:25.020Z,64.10
2019-01-02T10:14:36.741Z,65.44
2019-01-02T10:17:38.334Z,63.89
2019-01-02T10:20:43.977Z,63.54
2019-01-02T10:23:41.893Z,64.05
2019-01-02T10:26:53.436Z,62.61
2019-01-02T10:30:10.943Z,62.72
2019-01-02T10:33:22.358Z,62.04
2019-01-02T10:37:00.850Z,62.54
2019-01-02T10:40:18.220Z,62.14
2019-01-02T10:43:16.629Z,60.49
2019-01-02T10:46:23.796Z,59.37
2019-01-02T10:49:23.038Z,60.18
2019-01-02T10:52:33.088Z,60.09
2019-01-02T10:55:31.773Z,59.35
2019-01-02T10:58:37.279Z,60.08
2019-01-02T11:01:50.418Z,58.61
2019-01-02T11:04:56.345Z,59.16
2019-01-02T11:08:13.485Z,58.27
2019-01-02T11:11:10.397Z,57.05
2019-01-02T11:14:09.464Z,56.93
2019-01-02T11:17:26.604Z,59.13
2019-01-02T11:20:49.639Z,58.17
2019-01-02T11:24:27.845Z,57.59
2019-01-02T11:27:37.624Z,58.10
2019-01-02T11:30:42.845Z,57.59
2019-01-02T11:33:53.148Z,56.99
2019-01-02T11:37:16.421Z,57.21
2019-01-02T11:40:39.545Z,58.43
2019-01-02T11:44:03.204Z,55.64
2019-01-02T11:46:33.954Z,55.63
2019-01-02T11:49:04.467Z,54.76
2019-01-02T11:51:34.926Z,55.77
2019-01-02T11:54:05.681Z,55.38
2019-01-02T11:56:36.466Z,54.99
2019-01-02T11:59:06.923Z,55.23
2019-01-02T12:01:37.445Z,55.77
2019-01-02T12:04:08.053Z,54.05
2019-01-02T12:06:38.527Z,54.99
2019-01-02T12:09:09.990Z,55.64
2019-01-02T12:11:40.734Z,55.67
2019-01-02T12:14:11.240Z,54.92
2019-01-02T12:16:41.699Z,54.39
2019-01-02T12:19:12.148Z,53.87
2019-01-02T12:21:42.654Z,56.06
2019-01-02T12:24:13.071Z,54.11
2019-01-02T12:26:43.567Z,54.46
2019-01-02T12:29:14.009Z,54.38
2019-01-02T12:31:44.460Z,53.71
2019-01-02T12:34:15.228Z,55.51
2019-01-02T12:36:45.671Z,55.49
2019-01-02T12:39:16.161Z,55.07
2019-01-02T12:41:46.920Z,55.22
2019-01-02T12:44:17.670Z,56.55
2019-01-02T12:46:48.143Z,55.16
2019-01-02T12:49:18.901Z,55.69
2019-01-02T12:51:49.697Z,56.21
2019-01-02T12:54:20.438Z,55.78
2019-01-02T12:56:50.918Z,57.65
2019-01-02T12:59:28.604Z,57.38
2019-01-02T13:02:32.965Z,57.51
2019-01-02T13:05:47.226Z,56.53
2019-01-02T13:09:06.702Z,57.12
2019-01-02T13:12:01.539Z,57.68
2019-01-02T13:15:07.081Z,56.30
2019-01-02T13:18:07.053Z,55.53
2019-01-02T13:21:14.752Z,55.59
2019-01-02T13:24:15.914Z,56.04
2019-01-02T13:27:39.410Z,54.27
2019-01-02T13:30:49.981Z,55.75
2019-01-02T13:33:52.570Z,55.11
2019-01-02T13:36:52.566Z,53.12
2019-01-02T13:39:50.282Z,55.71
2019-01-02T13:42:46.294Z,53.56
2019-01-02T13:45:47.746Z,54.80
2019-01-02T13:48:58.047Z,53.55
2019-01-02T13:51:37.292Z,53.10
2019-01-02T13:54:07.935Z,51.89
2019-01-02T13:56:39.297Z,52.47
2019-01-02T13:59:09.741Z,50.69
2019-01-02T14:01:40.233Z,51.46
2019-01-02T14:04:11.206Z,50.80
2019-01-02T14:06:41.685Z,50.75
2019-01-02T14:09:12.191Z,51.49
2019-01-02T14:11:42.807Z,51.22
2019-01-02T14:14:13.262Z,52.75
2019-01-02T14:16:43.829Z,53.12
2019-01-02T14:19:14.286Z,53.38
2019-01-02T14:21:44.722Z,53.09
2019-01-02T14:24:15.204Z,53.73
2019-01-02T14:26:45.645Z,54.46
2019-01-02T14:29:16.146Z,55.46
2019-01-02T14:31:46.860Z,55.61
2019-01-02T14:34:17.309Z,54.10
2019-01-02T14:36:48.163Z,54.27
2019-01-02T14:39:18.911Z,55.02
2019-01-02T14:41:49.399Z,54.73
2019-01-02T14:44:19.850Z,55.13
2019-01-02T14:46:50.763Z,54.41
2019-01-02T14:49:21.251Z,54.64
2019-01-02T14:51:51.709Z,55.02
2019-01-02T14:54:22.196Z,54.68
2019-01-02T14:56:54.909Z,55.87
2019-01-02T14:59:25.357Z,54.86
2019-01-02T15:01:55.899Z,55.36
2019-01-02T15:04:26.933Z,55.52
2019-01-02T15:06:57.757Z,55.46
2019-01-02T15:09:28.513Z,55.38
2019-01-02T15:11:59.255Z,55.44
2019-01-02T15:14:30.323Z,55.45
2019-01-02T15:17:00.769Z,54.74
2019-01-02T15:19:31.260Z,56.73
2019-01-02T15:22:04.876Z,56.12
2019-01-02T15:24:33.851Z,55.54
2019-01-02T15:27:04.321Z,56.52
2019-01-02T15:29:35.057Z,56.42
2019-01-02T15:32:05.534Z,55.51
2019-01-02T15:34:35.981Z,55.89
2019-01-02T15:37:06.531Z,56.83
2019-01-02T15:39:36.972Z,55.44
2019-01-02T15:42:07.714Z,57.12
2019-01-02T15:44:38.756Z,55.97
2019-01-02T15:47:09.211Z,57.39
2019-01-02T15:49:39.704Z,58.33
2019-01-02T15:52:10.441Z,56.48
2019-01-02T15:54:41.497Z,57.09
2019-01-02T15:57:12.282Z,57.43
2019-01-02T15:59:43.044Z,56.66
2019-01-02T16:02:13.810Z,56.62
2019-01-02T16:04:44.267Z,56.74
2019-01-02T16:07:15.038Z,57.51
2019-01-02T16:09:45.506Z,58.00
2019-01-02T16:12:15.957Z,58.56
2019-01-02T16:14:46.453Z,59.02
2019-01-02T16:17:16.945Z,59.17
2019-01-02T16:19:47.346Z,59.85
2019-01-02T16:22:23.991Z,58.45
2019-01-02T16:24:54.428Z,59.47
2019-01-02T16:27:24.925Z,59.08
2019-01-02T16:29:55.365Z,59.84
2019-01-02T16:32:25.805Z,60.09
2019-01-02T16:34:56.269Z,60.62
2019-01-02T16:37:26.717Z,62.56
2019-01-02T16:39:57.368Z,61.31
2019-01-02T16:42:27.821Z,60.15
2019-01-02T16:44:58.551Z,61.44
2019-01-02T16:47:29.022Z,61.86
2019-01-02T16:49:59.757Z,61.62
2019-01-02T16:52:30.543Z,61.78
2019-01-02T16:55:00.990Z,61.65
2019-01-02T16:57:31.724Z,61.67
2019-01-02T17:00:02.535Z,62.94
2019-01-02T17:02:32.967Z,62.52
2019-01-02T17:05:04.017Z,62.61
2019-01-02T17:22:44.816Z,63.15
2019-01-02T17:25:15.331Z,63.43
2019-01-02T17:27:45.763Z,63.68
2019-01-02T17:30:16.484Z,64.05
2019-01-02T17:32:46.944Z,64.58
2019-01-02T17:35:17.670Z,63.11
2019-01-02T17:37:48.459Z,63.69
2019-01-02T17:40:18.909Z,64.35
2019-01-02T17:42:49.344Z,64.48
2019-01-02T17:45:22.045Z,64.94
2019-01-02T17:47:52.485Z,64.00
2019-01-02T17:50:23.210Z,65.55
2019-01-02T17:52:53.688Z,65.80
2019-01-02T17:55:24.122Z,65.06
2019-01-02T17:57:54.725Z,64.86
2019-01-02T18:00:25.504Z,65.27
2019-01-02T18:02:55.936Z,64.42
2019-01-02T18:05:26.395Z,65.51
2019-01-02T18:07:57.492Z,65.61
2019-01-02T18:10:27.955Z,65.93
2019-01-02T18:12:58.393Z,64.86
2019-01-02T18:15:28.883Z,66.47
2019-01-02T18:17:59.686Z,66.39
2019-01-02T18:20:30.117Z,65.00
2019-01-02T18:23:01.180Z,65.81
2019-01-02T18:25:31.613Z,67.84
2019-01-02T18:28:02.339Z,67.04
2019-01-02T18:30:32.823Z,67.50
2019-01-02T18:33:04.203Z,68.28
2019-01-02T18:35:34.932Z,67.85
2019-01-02T18:38:05.683Z,66.94
2019-01-02T18:40:37.063Z,66.71
2019-01-02T18:43:07.553Z,66.86
2019-01-02T18:45:37.990Z,67.00
2019-01-02T18:48:08.417Z,67.14
2019-01-02T18:50:39.168Z,66.50
2019-01-02T18:53:09.604Z,66.17
2019-01-02T18:55:40.076Z,67.60
2019-01-02T18:58:10.516Z,68.13
2019-01-02T19:00:41.240Z,67.87
2019-01-02T19:03:11.991Z,67.63
2019-01-02T19:05:42.717Z,66.96
2019-01-02T19:08:13.484Z,67.90
2019-01-02T19:10:44.254Z,67.71
2019-01-02T19:13:15.264Z,66.80
2019-01-02T19:15:45.724Z,67.62
2019-01-02T19:18:16.449Z,66.98
2019-01-02T19:20:46.923Z,66.93
2019-01-02T19:23:17.349Z,66.85
2019-01-02T19:25:47.783Z,67.25
2019-01-02T19:28:18.257Z,67.42
2019-01-02T19:30:48.689Z,67.94
2019-01-02T19:33:19.455Z,66.80
2019-01-02T19:35:49.888Z,68.27
2019-01-02T19:38:20.326Z,67.49
2019-01-02T19:40:51.086Z,67.54
2019-01-02T19:43:22.182Z,66.72
2019-01-02T19:45:53.129Z,68.09
2019-01-02T19:48:23.563Z,67.50
2019-01-02T19:50:54.169Z,67.63
2019-01-02T19:53:24.626Z,67.37
2019-01-02T19:55:55.071Z,66.15
2019-01-02T19:58:25.701Z,66.67
2019-01-02T20:00:56.417Z,66.50
2019-01-02T20:03:26.867Z,66.78
2019-01-02T20:05:57.615Z,67.34
2019-01-02T20:08:28.079Z,66.56
2019-01-02T20:10:58.553Z,67.49
2019-01-02T20:13:28.991Z,66.50
2019-01-02T20:15:59.723Z,67.03
2019-01-02T20:18:30.486Z,68.31
2019-01-02T20:21:00.917Z,69.43
2019-01-02T20:23:31.399Z,68.66
2019-01-02T20:26:02.128Z,69.62
2019-01-02T20:28:32.560Z,68.96
2019-01-02T20:31:03.022Z,68.17
2019-01-02T20:33:33.748Z,69.41
2019-01-02T20:36:04.208Z,69.20
2019-01-02T20:38:34.684Z,69.57
2019-01-02T20:41:05.214Z,68.53
2019-01-02T20:43:35.636Z,68.68
2019-01-02T20:46:06.073Z,70.02
2019-01-02T20:48:36.552Z,70.12
2019-01-02T20:51:06.994Z,69.90
2019-01-02T20:53:37.426Z,70.15
2019-01-02T20:56:07.922Z,70.48
2019-01-02T20:58:38.381Z,70.02
2019-01-02T21:01:09.409Z,69.65
2019-01-02T21:03:39.955Z,69.62
2019-01-02T21:06:10.417Z,70.31
2019-01-02T21:08:41.138Z,69.58
2019-01-02T21:11:11.625Z,69.67
2019-01-02T21:13:42.103Z,69.24
2019-01-02T21:16:12.535Z,69.51
2019-01-02T21:18:43.005Z,70.58
2019-01-02T21:21:13.433Z,70.74
2019-01-02T21:23:43.885Z,70.73
2019-01-02T21:26:14.372Z,70.91
2019-01-02T21:28:45.568Z,70.69
2019-01-02T21:31:16.065Z,71.94
2019-01-02T21:33:46.544Z,71.68
2019-01-02T21:36:16.980Z,71.33
2019-01-02T21:38:47.415Z,70.80
2019-01-02T21:41:19.360Z,71.77
2019-01-02T21:43:50.536Z,71.54
2019-01-02T21:46:20.986Z,72.00
2019-01-02T21:48:51.468Z,72.97
2019-01-02T21:51:22.197Z,71.78
2019-01-02T21:53:52.924Z,72.03
2019-01-02T21:56:23.413Z,71.20
2019-01-02T21:58:53.846Z,72.08
2019-01-02T22:01:24.301Z,72.32
2019-01-02T22:03:54.785Z,72.14
2019-01-02T22:06:25.269Z,72.41
2019-01-02T22:08:55.692Z,72.83
2019-01-02T22:11:26.477Z,73.09
2019-01-02T22:13:57.202Z,72.43
2019-01-02T22:16:27.636Z,72.30
2019-01-02T22:18:58.692Z,73.22
2019-01-02T22:21:29.707Z,73.45
2019-01-02T22:24:00.136Z,72.87
2019-01-02T22:26:30.911Z,72.87
2019-01-02T22:29:01.641Z,73.20
2019-01-02T22:31:32.367Z,73.44
2019-01-02T22:34:03.138Z,73.96
2019-01-02T22:36:33.574Z,73.86
2019-01-02T22:39:06.003Z,72.98
2019-01-02T22:41:36.484Z,73.74
2019-01-02T22:44:06.917Z,72.92
2019-01-02T22:46:37.642Z,73.24
2019-01-02T22:49:08.116Z,73.26
2019-01-02T22:51:38.551Z,74.02
2019-01-02T22:54:08.980Z,74.30
2019-01-02T22:56:39.459Z,73.60
2019-01-02T22:59:09.900Z,72.80
2019-01-02T23:01:45.512Z,73.73
2019-01-02T23:04:53.143Z,73.19
2019-01-02T23:07:41.177Z,73.39
2019-01-02T23:10:36.426Z,73.50
2019-01-02T23:13:17.668Z,72.86
2019-01-02T23:16:16.212Z,72.87
2019-01-02T23:19:04.407Z,72.48
2019-01-02T23:21:45.938Z,73.11
2019-01-02T23:24:34.026Z,72.82
2019-01-02T23:27:29.918Z,72.96
2019-01-02T23:30:18.081Z,72.79
2019-01-02T23:33:03.417Z,72.41
2019-01-02T23:35:58.579Z,72.39
2019-01-02T23:38:48.022Z,72.65
2019-01-02T23:41:41.053Z,72.42
2019-01-02T23:44:48.353Z,72.42
2019-01-02T23:47:44.061Z,72.29
2019-01-02T23:50:32.322Z,73.14
2019-01-02T23:53:39.996Z,72.60
2019-01-02T23:56:27.816Z,72.00
2019-01-02T23:59:29.521Z,72.42
